Time;durP1;ratioP1;P1;durP2;ratioP2;P2;SDS_P1;SDS_P2;PMS_P1;PMS_P2;Temp;Humidity;BMP_temperature;BMP_pressure;BME280_temperature;BME280_humidity;BME280_pressure;Samples;Min_cycle;Max_cycle;Signal;HPM_P1;HPM_P2
2023/11/27 00:02:23;;;;;;;7.65;4.38;;;3.10;99.90;;;;;;5004157;28;20040;-78
2023/11/27 00:04:49;;;;;;;9.27;4.63;;;3.10;99.90;;;;;;5010522;28;20063;-77
2023/11/27 00:07:14;;;;;;;7.45;4.05;;;3.10;99.90;;;;;;5007286;28;20030;-77
2023/11/27 00:09:40;;;;;;;9.52;4.38;;;3.10;99.90;;;;;;5005315;28;20029;-77
2023/11/27 00:12:07;;;;;;;7.90;4.03;;;3.10;99.90;;;;;;5007765;28;20471;-77
2023/11/27 00:14:32;;;;;;;10.02;4.50;;;3.10;99.90;;;;;;5013171;28;20029;-77
2023/11/27 00:16:58;;;;;;;7.97;3.72;;;3.10;99.90;;;;;;5007622;28;20037;-77
2023/11/27 00:19:23;;;;;;;8.80;4.45;;;3.10;99.90;;;;;;5004672;28;20391;-78
2023/11/27 00:21:49;;;;;;;7.20;3.53;;;3.20;99.90;;;;;;5010291;28;20390;-78
2023/11/27 00:24:15;;;;;;;9.00;4.28;;;3.10;99.90;;;;;;4988143;28;20181;-78
2023/11/27 00:26:40;;;;;;;7.68;4.10;;;3.20;99.90;;;;;;5013780;28;20148;-78
2023/11/27 00:29:06;;;;;;;8.80;4.60;;;3.20;99.90;;;;;;5013698;28;20447;-78
2023/11/27 00:31:32;;;;;;;8.88;4.20;;;3.20;99.90;;;;;;5012311;28;20469;-78
2023/11/27 00:33:58;;;;;;;8.55;4.07;;;3.20;99.90;;;;;;5011557;28;20425;-78
2023/11/27 00:36:23;;;;;;;8.27;4.30;;;3.20;99.90;;;;;;5012283;28;20394;-78
2023/11/27 00:38:49;;;;;;;8.35;4.18;;;3.30;99.90;;;;;;5012463;28;20041;-78
2023/11/27 00:41:14;;;;;;;6.20;3.28;;;3.30;99.90;;;;;;5011672;28;20038;-78
2023/11/27 00:43:43;;;;;;;9.13;4.35;;;3.30;99.90;;;;;;5014928;28;20502;-78
2023/11/27 00:46:13;;;;;;;7.68;4.28;;;3.30;99.90;;;;;;5011306;28;20038;-78
2023/11/27 00:48:41;;;;;;;9.18;4.28;;;3.30;99.90;;;;;;5009945;28;20030;-78
2023/11/27 00:51:07;;;;;;;10.55;4.47;;;3.30;99.90;;;;;;5013559;28;20105;-78
2023/11/27 00:53:33;;;;;;;7.70;4.18;;;3.30;99.90;;;;;;5012667;28;20488;-78
2023/11/27 00:55:58;;;;;;;6.43;3.30;;;3.30;99.90;;;;;;5012574;28;20034;-78
2023/11/27 00:58:25;;;;;;;6.82;4.13;;;3.30;99.90;;;;;;5014136;28;20084;-78
2023/11/27 01:00:53;;;;;;;9.23;4.15;;;3.30;99.90;;;;;;5012124;28;20030;-78
2023/11/27 01:03:18;;;;;;;8.80;4.97;;;3.30;99.90;;;;;;5006543;28;20048;-78
2023/11/27 01:05:44;;;;;;;7.63;4.43;;;3.30;99.90;;;;;;5013230;28;20042;-78
2023/11/27 01:08:12;;;;;;;8.07;3.92;;;3.30;99.90;;;;;;5011029;28;20046;-78
2023/11/27 01:10:38;;;;;;;8.00;4.55;;;3.30;99.90;;;;;;5009280;28;20494;-78
2023/11/27 01:13:04;;;;;;;6.57;3.38;;;3.40;99.90;;;;;;5013496;28;20026;-78
2023/11/27 01:15:30;;;;;;;8.50;4.13;;;3.40;99.90;;;;;;5027761;28;20034;-78
2023/11/27 01:17:56;;;;;;;6.80;3.63;;;3.30;99.90;;;;;;5013852;28;20372;-78
2023/11/27 01:20:22;;;;;;;7.47;3.65;;;3.30;99.90;;;;;;5013264;28;20044;-78
2023/11/27 01:22:47;;;;;;;7.70;4.28;;;3.40;99.90;;;;;;5012927;28;20019;-78
2023/11/27 01:25:13;;;;;;;8.55;3.95;;;3.40;99.90;;;;;;4987580;28;20054;-78
2023/11/27 01:27:38;;;;;;;8.48;4.05;;;3.40;99.90;;;;;;5012687;28;20026;-78
2023/11/27 01:30:05;;;;;;;7.07;3.58;;;3.40;99.90;;;;;;5011002;28;20041;-78
2023/11/27 01:32:30;;;;;;;8.27;4.47;;;3.40;99.90;;;;;;5007613;28;20509;-78
2023/11/27 01:34:56;;;;;;;8.10;3.95;;;3.40;99.90;;;;;;5013100;28;20044;-78
2023/11/27 01:37:22;;;;;;;7.63;3.97;;;3.40;99.90;;;;;;5011310;28;20030;-78
2023/11/27 01:39:48;;;;;;;5.68;3.20;;;3.40;99.90;;;;;;5010512;28;20030;-78
2023/11/27 01:42:13;;;;;;;7.10;3.70;;;3.40;99.90;;;;;;5009752;28;20072;-78
2023/11/27 01:44:39;;;;;;;8.23;3.85;;;3.40;99.90;;;;;;5012304;28;20498;-78
2023/11/27 01:47:05;;;;;;;6.47;3.67;;;3.40;99.90;;;;;;5006647;28;20030;-78
2023/11/27 01:49:32;;;;;;;7.47;3.75;;;3.50;99.90;;;;;;5012283;28;20471;-78
2023/11/27 01:52:00;;;;;;;8.65;4.13;;;3.50;99.90;;;;;;5011486;28;20033;-78
2023/11/27 01:54:27;;;;;;;6.68;3.55;;;3.50;99.90;;;;;;5011469;28;20041;-78
2023/11/27 01:56:54;;;;;;;6.55;3.45;;;3.50;99.90;;;;;;5011712;28;20040;-78
2023/11/27 01:59:22;;;;;;;7.35;3.78;;;3.50;99.90;;;;;;5012932;28;20069;-78
2023/11/27 02:01:47;;;;;;;6.97;3.35;;;3.50;99.90;;;;;;5007630;28;20048;-78
2023/11/27 02:04:13;;;;;;;6.82;3.92;;;3.50;99.90;;;;;;5010901;28;20038;-78
2023/11/27 02:06:39;;;;;;;7.93;3.63;;;3.50;99.90;;;;;;5013655;28;20034;-78
2023/11/27 02:09:05;;;;;;;6.95;3.63;;;3.50;99.90;;;;;;5011839;28;20088;-78
2023/11/27 02:11:31;;;;;;;6.50;3.72;;;3.50;99.90;;;;;;5011768;28;20042;-78
2023/11/27 02:13:56;;;;;;;7.78;3.45;;;3.50;99.90;;;;;;5012026;28;20033;-78
2023/11/27 02:16:23;;;;;;;6.55;3.28;;;3.50;99.90;;;;;;5010024;28;20089;-78
2023/11/27 02:18:48;;;;;;;7.85;4.03;;;3.60;99.90;;;;;;5006523;28;20541;-78
2023/11/27 02:21:17;;;;;;;9.20;3.33;;;3.60;99.90;;;;;;5010826;28;20112;-78
2023/11/27 02:23:42;;;;;;;6.95;3.35;;;3.60;99.90;;;;;;4989493;28;20084;-78
2023/11/27 02:26:08;;;;;;;6.68;3.75;;;3.50;99.90;;;;;;5013090;28;20029;-78
2023/11/27 02:28:34;;;;;;;7.28;4.00;;;3.60;99.90;;;;;;5011915;28;20084;-78
2023/11/27 02:30:59;;;;;;;7.30;3.42;;;3.60;99.90;;;;;;5014487;28;20470;-78
2023/11/27 02:33:25;;;;;;;9.88;4.03;;;3.60;99.90;;;;;;5007698;28;20030;-78
2023/11/27 02:35:51;;;;;;;6.30;3.25;;;3.60;99.90;;;;;;5012077;28;20038;-78
2023/11/27 02:38:17;;;;;;;7.05;3.20;;;3.60;99.90;;;;;;5011844;28;20077;-78
2023/11/27 02:40:42;;;;;;;7.28;3.97;;;3.60;99.90;;;;;;5010176;28;20056;-78
2023/11/27 02:43:09;;;;;;;7.15;3.53;;;3.60;99.90;;;;;;5010478;28;20045;-78
2023/11/27 02:45:34;;;;;;;6.05;3.13;;;3.60;99.90;;;;;;5010409;28;20029;-78
2023/11/27 02:48:00;;;;;;;6.13;3.17;;;3.60;99.90;;;;;;5009624;28;20038;-78
2023/11/27 02:50:25;;;;;;;6.95;3.63;;;3.60;99.90;;;;;;5010480;28;20057;-78
2023/11/27 02:52:51;;;;;;;7.18;3.90;;;3.60;99.90;;;;;;5011649;28;20037;-78
2023/11/27 02:55:19;;;;;;;6.95;3.63;;;3.60;99.90;;;;;;5007993;28;20544;-78
2023/11/27 02:57:46;;;;;;;5.68;3.17;;;3.60;99.90;;;;;;5010889;28;20061;-78
2023/11/27 03:00:12;;;;;;;8.30;3.80;;;3.60;99.90;;;;;;5010615;28;20068;-78
2023/11/27 03:02:38;;;;;;;6.88;3.28;;;3.60;99.90;;;;;;5007541;28;20029;-78
2023/11/27 03:05:07;;;;;;;5.85;2.83;;;3.60;99.90;;;;;;5009648;28;20117;-78
2023/11/27 03:07:34;;;;;;;6.70;3.13;;;3.60;99.90;;;;;;5010213;28;20461;-78
2023/11/27 03:09:59;;;;;;;6.18;2.78;;;3.60;99.90;;;;;;5009524;28;20541;-78
2023/11/27 03:12:25;;;;;;;5.75;2.97;;;3.60;99.90;;;;;;5011187;28;20156;-78
2023/11/27 03:14:50;;;;;;;7.45;3.30;;;3.60;99.90;;;;;;5013856;28;20034;-78
2023/11/27 03:17:17;;;;;;;8.68;3.88;;;3.60;99.90;;;;;;5008628;28;20042;-78
2023/11/27 03:19:43;;;;;;;6.60;3.17;;;3.60;99.90;;;;;;5010763;28;20022;-78
2023/11/27 03:22:08;;;;;;;6.97;3.38;;;3.60;99.90;;;;;;5009486;28;20028;-78
2023/11/27 03:24:34;;;;;;;7.80;3.53;;;3.60;99.90;;;;;;4987397;28;20097;-78
2023/11/27 03:26:59;;;;;;;8.48;4.00;;;3.60;99.90;;;;;;5008927;28;20139;-78
2023/11/27 03:29:25;;;;;;;6.03;3.42;;;3.70;99.90;;;;;;5010626;28;20077;-78
2023/11/27 03:31:50;;;;;;;7.60;4.05;;;3.70;99.90;;;;;;5008775;28;20471;-78
2023/11/27 03:34:16;;;;;;;7.38;3.38;;;3.60;99.90;;;;;;5008540;28;20056;-78
2023/11/27 03:36:42;;;;;;;8.80;3.58;;;3.70;99.90;;;;;;5011661;28;20045;-78
2023/11/27 03:39:07;;;;;;;7.10;3.45;;;3.70;99.90;;;;;;5008591;28;20080;-78
2023/11/27 03:41:33;;;;;;;5.95;3.25;;;3.60;99.90;;;;;;5009406;28;20459;-78
2023/11/27 03:44:00;;;;;;;7.22;3.50;;;3.70;99.90;;;;;;5011021;28;20034;-78
2023/11/27 03:46:25;;;;;;;6.78;3.28;;;3.70;99.90;;;;;;5012017;28;20033;-78
2023/11/27 03:48:51;;;;;;;7.57;3.60;;;3.70;99.90;;;;;;5008293;28;20029;-78
2023/11/27 03:51:16;;;;;;;7.90;3.60;;;3.80;99.90;;;;;;5013241;28;20568;-78
2023/11/27 03:53:42;;;;;;;6.22;3.05;;;3.80;99.90;;;;;;5010300;28;20224;-78
2023/11/27 03:56:08;;;;;;;6.47;3.30;;;3.80;99.90;;;;;;5010283;28;20506;-78
2023/11/27 03:58:34;;;;;;;7.35;3.75;;;3.80;99.90;;;;;;5009353;28;20048;-78
2023/11/27 04:01:03;;;;;;;8.30;3.90;;;3.80;99.90;;;;;;5007853;28;20198;-78
2023/11/27 04:03:28;;;;;;;7.50;3.90;;;3.80;99.90;;;;;;5005640;28;20042;-78
2023/11/27 04:05:54;;;;;;;9.00;4.22;;;3.80;99.90;;;;;;5009173;28;20334;-78
2023/11/27 04:08:19;;;;;;;6.55;3.35;;;3.80;99.90;;;;;;5008449;28;20065;-78
2023/11/27 04:10:45;;;;;;;7.30;3.65;;;3.80;99.90;;;;;;5001836;28;20470;-78
2023/11/27 04:13:10;;;;;;;6.85;3.17;;;3.80;99.90;;;;;;5010265;28;20033;-78
2023/11/27 04:15:36;;;;;;;9.35;4.45;;;3.90;99.90;;;;;;5007704;28;20449;-78
2023/11/27 04:18:01;;;;;;;6.60;3.28;;;3.90;99.90;;;;;;5009499;28;20026;-78
2023/11/27 04:20:27;;;;;;;6.78;3.30;;;3.80;99.90;;;;;;5008895;28;20034;-78
2023/11/27 04:22:52;;;;;;;8.88;4.05;;;3.90;99.90;;;;;;5012169;28;20030;-78
2023/11/27 04:25:18;;;;;;;6.65;3.85;;;3.90;99.90;;;;;;4985505;28;20038;-78
2023/11/27 04:27:44;;;;;;;8.10;3.55;;;3.90;99.90;;;;;;5008926;28;20478;-78
2023/11/27 04:30:09;;;;;;;7.82;3.53;;;3.90;99.90;;;;;;5009122;28;20049;-78
2023/11/27 04:32:35;;;;;;;7.47;3.20;;;3.90;99.90;;;;;;5004518;28;20489;-78
2023/11/27 04:35:00;;;;;;;6.78;3.28;;;3.90;99.90;;;;;;5008885;28;20034;-78
2023/11/27 04:37:26;;;;;;;7.20;3.55;;;3.90;99.90;;;;;;5010759;28;20074;-78
2023/11/27 04:39:51;;;;;;;7.53;3.47;;;4.00;99.90;;;;;;5008526;28;20376;-78
2023/11/27 04:42:20;;;;;;;6.65;3.95;;;4.00;99.90;;;;;;5008746;28;20164;-78
2023/11/27 04:44:46;;;;;;;8.15;3.70;;;4.00;99.90;;;;;;5011252;28;20030;-78
2023/11/27 04:47:12;;;;;;;6.60;3.60;;;4.00;99.90;;;;;;5001780;28;20368;-78
2023/11/27 04:49:37;;;;;;;7.60;3.40;;;4.10;99.90;;;;;;5008328;28;20050;-78
2023/11/27 04:52:04;;;;;;;7.03;3.40;;;4.10;99.90;;;;;;5004480;28;20050;-78
2023/11/27 04:54:30;;;;;;;6.68;3.15;;;4.00;99.90;;;;;;5008809;28;20038;-78
2023/11/27 04:56:56;;;;;;;6.88;3.72;;;4.10;99.90;;;;;;5013129;28;20034;-78
2023/11/27 04:59:21;;;;;;;7.10;3.28;;;4.10;99.90;;;;;;5009612;28;20041;-78
2023/11/27 05:01:47;;;;;;;7.75;3.65;;;4.00;99.90;;;;;;5002944;28;20080;-78
2023/11/27 05:04:17;;;;;;;7.15;3.42;;;4.10;99.90;;;;;;5006738;28;20036;-78
2023/11/27 05:06:46;;;;;;;6.43;3.00;;;4.10;99.90;;;;;;5011282;28;20032;-78
2023/11/27 05:09:12;;;;;;;7.50;3.17;;;4.10;99.90;;;;;;5010020;28;20026;-78
2023/11/27 05:11:38;;;;;;;6.78;2.97;;;4.10;99.90;;;;;;5013388;28;20046;-78
2023/11/27 05:14:04;;;;;;;7.00;3.13;;;4.10;99.90;;;;;;5008722;28;20546;-78
2023/11/27 05:16:30;;;;;;;7.00;3.55;;;4.10;99.90;;;;;;5018420;28;20042;-78
2023/11/27 05:18:55;;;;;;;7.25;3.35;;;4.10;99.90;;;;;;5024609;28;20374;-78
2023/11/27 05:21:21;;;;;;;6.93;3.22;;;4.10;99.90;;;;;;5010662;28;20029;-79
2023/11/27 05:23:47;;;;;;;7.05;3.20;;;4.10;99.90;;;;;;5013394;28;20117;-79
2023/11/27 05:26:13;;;;;;;6.60;2.92;;;4.10;99.90;;;;;;4989321;28;20060;-78
2023/11/27 05:28:39;;;;;;;6.47;2.95;;;4.10;99.90;;;;;;5011404;28;20022;-75
2023/11/27 05:31:05;;;;;;;6.25;2.75;;;4.10;99.90;;;;;;5005469;28;20390;-75
2023/11/27 05:33:32;;;;;;;6.90;2.92;;;4.10;99.90;;;;;;5006378;28;20067;-75
2023/11/27 05:35:57;;;;;;;6.97;3.13;;;4.10;99.90;;;;;;5010434;28;20092;-75
2023/11/27 05:38:23;;;;;;;5.68;2.88;;;4.10;99.90;;;;;;5009547;28;20470;-75
2023/11/27 05:40:50;;;;;;;5.22;2.58;;;4.10;99.90;;;;;;5012431;28;20045;-75
2023/11/27 05:43:17;;;;;;;6.55;3.03;;;4.10;99.90;;;;;;5007738;28;20538;-75
2023/11/27 05:45:43;;;;;;;5.60;2.50;;;4.10;99.90;;;;;;5011882;28;20037;-75
2023/11/27 05:48:08;;;;;;;4.88;2.42;;;4.10;99.90;;;;;;5009728;28;20041;-75
2023/11/27 05:50:34;;;;;;;5.50;2.47;;;4.10;99.90;;;;;;5010683;28;20140;-75
2023/11/27 05:53:00;;;;;;;5.32;2.45;;;4.10;99.90;;;;;;5013384;28;20034;-75
2023/11/27 05:55:26;;;;;;;5.43;2.58;;;4.10;99.90;;;;;;5011872;28;20356;-75
2023/11/27 05:57:51;;;;;;;4.57;2.17;;;4.10;99.90;;;;;;5008012;28;20379;-75
2023/11/27 06:00:17;;;;;;;4.68;2.42;;;4.10;99.90;;;;;;5007835;28;20045;-75
2023/11/27 06:02:43;;;;;;;4.68;2.20;;;4.10;99.90;;;;;;5008428;28;20041;-75
2023/11/27 06:05:08;;;;;;;2.78;1.77;;;4.10;99.90;;;;;;5010136;28;20092;-75
2023/11/27 06:07:34;;;;;;;5.47;2.25;;;4.00;99.90;;;;;;5011840;28;20447;-75
2023/11/27 06:10:02;;;;;;;4.82;2.72;;;4.00;99.90;;;;;;5010896;28;20046;-75
2023/11/27 06:12:28;;;;;;;5.10;2.00;;;4.10;99.90;;;;;;5010388;28;20034;-75
2023/11/27 06:14:54;;;;;;;4.78;2.25;;;4.00;99.90;;;;;;5011581;28;20104;-75
2023/11/27 06:17:20;;;;;;;5.53;2.40;;;4.00;99.90;;;;;;5005340;28;20085;-75
2023/11/27 06:19:46;;;;;;;5.47;2.30;;;4.00;99.90;;;;;;5003867;28;20142;-75
2023/11/27 06:22:12;;;;;;;4.38;1.90;;;4.00;99.90;;;;;;5013182;28;20041;-75
2023/11/27 06:24:37;;;;;;;4.85;2.55;;;4.00;99.90;;;;;;4989325;28;20060;-75
2023/11/27 06:27:03;;;;;;;6.30;2.70;;;4.00;99.90;;;;;;5002527;28;20060;-75
2023/11/27 06:29:29;;;;;;;5.22;2.38;;;4.00;99.90;;;;;;5006054;28;20259;-75
2023/11/27 06:31:55;;;;;;;5.53;2.70;;;4.00;99.90;;;;;;5006147;28;20058;-75
2023/11/27 06:34:20;;;;;;;6.22;2.83;;;4.00;99.90;;;;;;5011186;28;20462;-74
2023/11/27 06:36:46;;;;;;;5.97;2.92;;;4.00;99.90;;;;;;5003242;28;20045;-75
2023/11/27 06:39:13;;;;;;;6.20;2.78;;;4.00;99.90;;;;;;5011741;28;20083;-74
2023/11/27 06:41:38;;;;;;;6.15;2.95;;;4.00;99.90;;;;;;5008376;28;20034;-75
2023/11/27 06:44:04;;;;;;;6.28;2.85;;;4.00;99.90;;;;;;5011935;28;20030;-75
2023/11/27 06:46:30;;;;;;;6.18;2.78;;;4.00;99.90;;;;;;5012462;28;20046;-75
2023/11/27 06:48:55;;;;;;;6.10;2.88;;;4.00;99.90;;;;;;5003732;28;20026;-75
2023/11/27 06:51:21;;;;;;;7.10;3.15;;;4.00;99.90;;;;;;5009243;28;20057;-75
2023/11/27 06:53:46;;;;;;;6.45;3.10;;;4.00;99.90;;;;;;5011723;28;20041;-76
2023/11/27 06:56:12;;;;;;;5.72;2.42;;;4.00;99.90;;;;;;5011831;28;20124;-76
2023/11/27 06:58:38;;;;;;;6.40;2.40;;;4.00;99.90;;;;;;5011543;28;20105;-75
2023/11/27 07:01:09;;;;;;;7.55;3.33;;;4.00;99.90;;;;;;5009818;28;20519;-75
2023/11/27 07:03:34;;;;;;;6.00;2.60;;;4.00;99.90;;;;;;5006220;28;20029;-75
2023/11/27 07:06:00;;;;;;;5.97;2.80;;;4.00;99.90;;;;;;5009610;28;20057;-75
2023/11/27 07:08:25;;;;;;;6.35;2.88;;;4.00;99.90;;;;;;5007120;28;20037;-75
2023/11/27 07:10:50;;;;;;;6.65;3.30;;;4.00;99.90;;;;;;5010129;28;20030;-75
2023/11/27 07:13:16;;;;;;;7.88;3.33;;;4.00;99.90;;;;;;5008432;28;20204;-75
2023/11/27 07:15:41;;;;;;;8.20;2.72;;;4.00;99.90;;;;;;5007817;28;20087;-75
2023/11/27 07:18:07;;;;;;;6.47;2.80;;;4.00;99.90;;;;;;5009220;28;20025;-75
2023/11/27 07:20:32;;;;;;;6.53;3.15;;;4.00;99.90;;;;;;5010850;28;20036;-75
2023/11/27 07:22:58;;;;;;;6.90;3.08;;;4.00;99.90;;;;;;5010968;28;20038;-75
2023/11/27 07:25:24;;;;;;;6.18;2.72;;;4.00;99.90;;;;;;4983749;28;20072;-75
2023/11/27 07:27:50;;;;;;;7.65;3.80;;;4.00;99.90;;;;;;5012061;28;20563;-75
2023/11/27 07:30:16;;;;;;;8.15;4.28;;;4.10;99.90;;;;;;5014714;28;20133;-75
2023/11/27 07:32:42;;;;;;;10.48;5.07;;;4.00;99.90;;;;;;5002683;28;20022;-75
2023/11/27 07:35:10;;;;;;;10.18;4.18;;;4.00;99.90;;;;;;5010332;28;20144;-75
2023/11/27 07:37:36;;;;;;;10.88;5.10;;;4.00;99.90;;;;;;5011431;28;20026;-75
2023/11/27 07:40:03;;;;;;;11.88;4.82;;;4.00;99.90;;;;;;5006812;28;20033;-75
2023/11/27 07:42:29;;;;;;;11.90;5.35;;;4.00;99.90;;;;;;5004338;28;20030;-75
2023/11/27 07:44:54;;;;;;;8.60;4.38;;;3.90;99.90;;;;;;5007783;28;20040;-75
2023/11/27 07:47:22;;;;;;;10.68;5.47;;;3.90;99.90;;;;;;5001579;28;20054;-75
2023/11/27 07:49:48;;;;;;;9.85;5.22;;;3.90;99.90;;;;;;5010311;28;20486;-75
2023/11/27 07:52:13;;;;;;;9.68;5.15;;;3.90;99.90;;;;;;5009551;28;20060;-75
2023/11/27 07:54:41;;;;;;;11.00;5.65;;;3.90;99.90;;;;;;5005302;28;20048;-74
2023/11/27 07:57:07;;;;;;;14.07;5.97;;;3.90;99.90;;;;;;5003766;28;20457;-75
2023/11/27 07:59:32;;;;;;;11.55;5.53;;;3.90;99.90;;;;;;5012066;28;20050;-75
2023/11/27 08:02:00;;;;;;;10.68;5.70;;;4.00;99.90;;;;;;5007166;28;20071;-75
2023/11/27 08:04:25;;;;;;;12.38;5.32;;;4.00;99.90;;;;;;5004722;28;20091;-75
2023/11/27 08:06:51;;;;;;;12.25;5.28;;;4.00;99.90;;;;;;5001309;28;20034;-75
2023/11/27 08:09:17;;;;;;;9.48;4.72;;;4.00;99.90;;;;;;5010384;28;20038;-75
2023/11/27 08:11:42;;;;;;;10.73;5.28;;;4.10;99.90;;;;;;5004464;28;20346;-74
2023/11/27 08:14:10;;;;;;;10.95;4.88;;;4.10;99.90;;;;;;5005190;28;20069;-75
2023/11/27 08:16:35;;;;;;;10.88;5.32;;;4.10;99.90;;;;;;5003775;28;20026;-78
2023/11/27 08:19:01;;;;;;;10.60;4.97;;;4.00;99.90;;;;;;5007709;28;20390;-75
2023/11/27 08:21:27;;;;;;;7.55;4.38;;;4.00;99.90;;;;;;5005012;28;20048;-75
2023/11/27 08:23:52;;;;;;;9.43;5.00;;;4.00;99.90;;;;;;5002330;28;20038;-78
2023/11/27 08:26:19;;;;;;;9.05;4.32;;;4.00;99.90;;;;;;4979698;28;20052;-76
2023/11/27 08:28:45;;;;;;;9.77;5.22;;;4.10;99.90;;;;;;5009463;28;20418;-76
2023/11/27 08:31:10;;;;;;;11.38;5.32;;;4.10;99.90;;;;;;5006366;28;20093;-78
2023/11/27 08:33:37;;;;;;;10.35;4.72;;;4.10;99.90;;;;;;5002538;28;20037;-78
2023/11/27 08:36:03;;;;;;;9.32;4.93;;;4.10;99.90;;;;;;5012703;28;20331;-75
2023/11/27 08:38:30;;;;;;;12.85;6.15;;;4.10;99.90;;;;;;5008780;28;20026;-75
2023/11/27 08:40:56;;;;;;;8.70;4.72;;;4.10;99.90;;;;;;5003559;28;20064;-75
2023/11/27 08:43:22;;;;;;;10.82;5.05;;;4.10;99.90;;;;;;5014040;28;20057;-77
2023/11/27 08:45:48;;;;;;;12.07;5.55;;;4.10;99.90;;;;;;5007491;28;20370;-80
2023/11/27 08:48:15;;;;;;;10.50;4.90;;;4.10;99.90;;;;;;5015544;28;20089;-77
2023/11/27 08:50:41;;;;;;;11.65;5.18;;;4.10;99.90;;;;;;5014284;28;20115;-78
2023/11/27 08:53:09;;;;;;;8.85;5.00;;;4.10;99.90;;;;;;5027460;28;20526;-78
2023/11/27 08:55:34;;;;;;;9.65;4.45;;;4.10;99.90;;;;;;5023449;28;20030;-78
2023/11/27 08:58:03;;;;;;;11.90;5.85;;;4.10;99.90;;;;;;5023145;28;20048;-78
2023/11/27 09:00:29;;;;;;;11.45;5.65;;;4.10;99.90;;;;;;5016451;28;20045;-76
2023/11/27 09:02:56;;;;;;;9.95;4.50;;;4.10;99.90;;;;;;5015284;28;20112;-78
2023/11/27 09:05:32;;;;;;;9.95;4.57;;;4.00;99.90;;;;;;5010879;28;20127;-77
2023/11/27 09:08:00;;;;;;;10.50;4.57;;;4.10;99.90;;;;;;5012146;28;20042;-77
2023/11/27 09:10:25;;;;;;;9.95;4.88;;;4.10;99.90;;;;;;5018062;28;20025;-76
2023/11/27 09:12:51;;;;;;;9.38;4.80;;;4.10;99.90;;;;;;5008792;28;20054;-76
2023/11/27 09:15:17;;;;;;;6.68;3.85;;;4.10;99.90;;;;;;5011789;28;20029;-76
2023/11/27 09:17:43;;;;;;;9.75;5.13;;;4.00;99.90;;;;;;5009424;28;20073;-76
2023/11/27 09:20:10;;;;;;;8.98;4.47;;;4.00;99.90;;;;;;5014176;28;20485;-76
2023/11/27 09:22:36;;;;;;;8.93;4.18;;;4.00;99.90;;;;;;5014144;28;20409;-77
2023/11/27 09:25:02;;;;;;;8.88;4.63;;;4.10;99.90;;;;;;4991047;28;20046;-76
2023/11/27 09:27:28;;;;;;;7.88;3.92;;;4.10;99.90;;;;;;5013543;28;20037;-76
2023/11/27 09:29:53;;;;;;;9.80;5.03;;;4.10;99.90;;;;;;5010955;28;20030;-77
2023/11/27 09:32:19;;;;;;;10.02;5.25;;;4.10;99.90;;;;;;5004957;28;20129;-76
2023/11/27 09:34:44;;;;;;;11.07;5.38;;;4.10;99.90;;;;;;5010639;28;20451;-76
2023/11/27 09:37:10;;;;;;;9.35;4.47;;;4.10;99.90;;;;;;5014536;28;20088;-76
2023/11/27 09:39:35;;;;;;;8.55;3.97;;;4.10;99.90;;;;;;5014715;28;20467;-76
2023/11/27 09:42:01;;;;;;;9.90;4.78;;;4.10;99.90;;;;;;5011432;28;20057;-76
2023/11/27 09:44:27;;;;;;;9.45;4.63;;;4.00;99.90;;;;;;5016141;28;20037;-76
2023/11/27 09:46:56;;;;;;;9.00;4.38;;;4.10;99.90;;;;;;5007808;28;20058;-76
2023/11/27 09:49:23;;;;;;;11.02;5.25;;;4.10;99.90;;;;;;5013022;28;20079;-76
2023/11/27 09:51:52;;;;;;;9.18;4.53;;;4.00;99.90;;;;;;5008105;28;20450;-76
2023/11/27 09:54:23;;;;;;;8.15;4.00;;;4.10;99.90;;;;;;5008818;28;20103;-75
2023/11/27 09:56:50;;;;;;;;;;;4.00;99.90;;;;;;5011908;28;20038;-76
2023/11/27 09:59:20;;;;;;;10.18;5.32;;;4.00;99.90;;;;;;5014948;28;19913;-76
2023/11/27 10:01:46;;;;;;;9.48;4.70;;;4.10;99.90;;;;;;5010818;28;20057;-76
2023/11/27 10:04:11;;;;;;;9.73;4.22;;;4.10;99.90;;;;;;5009370;28;20077;-76
2023/11/27 10:06:42;;;;;;;8.40;4.43;;;4.10;99.90;;;;;;5013470;28;20053;-76
2023/11/27 10:09:09;;;;;;;8.00;4.55;;;4.10;99.90;;;;;;5015441;28;20054;-76
2023/11/27 10:11:35;;;;;;;7.03;3.80;;;4.10;99.90;;;;;;5007658;28;20375;-76
2023/11/27 10:14:05;;;;;;;8.13;4.28;;;4.20;99.90;;;;;;5010161;28;20038;-76
2023/11/27 10:16:32;;;;;;;7.65;4.15;;;4.10;99.90;;;;;;5009464;28;20381;-76
2023/11/27 10:19:07;;;;;;;8.27;4.10;;;4.10;99.90;;;;;;5011124;28;20033;-76
2023/11/27 10:21:34;;;;;;;8.57;4.15;;;4.20;99.90;;;;;;5009465;28;20022;-76
2023/11/27 10:24:01;;;;;;;7.45;3.67;;;4.10;99.90;;;;;;5011005;28;20394;-76
2023/11/27 10:26:29;;;;;;;9.55;4.65;;;4.10;99.90;;;;;;4988811;28;20041;-76
2023/11/27 10:28:57;;;;;;;8.13;4.03;;;4.10;99.90;;;;;;5010699;28;20033;-76
2023/11/27 10:31:23;;;;;;;7.95;3.90;;;4.10;99.90;;;;;;5008572;28;20040;-76
2023/11/27 10:33:48;;;;;;;7.90;4.63;;;4.10;99.90;;;;;;5012758;28;20536;-76
2023/11/27 10:36:17;;;;;;;8.00;4.47;;;4.10;99.90;;;;;;5015530;28;20034;-76
2023/11/27 10:38:43;;;;;;;6.75;3.65;;;4.10;99.90;;;;;;5012634;28;20061;-76
2023/11/27 10:41:09;;;;;;;8.00;4.05;;;4.10;99.90;;;;;;5010658;28;20072;-76
2023/11/27 10:43:35;;;;;;;7.85;4.90;;;4.10;99.90;;;;;;5010784;28;20119;-76
2023/11/27 10:46:03;;;;;;;9.15;4.05;;;4.00;99.90;;;;;;5010022;28;20049;-76
2023/11/27 10:48:29;;;;;;;9.98;4.50;;;4.10;99.90;;;;;;5009978;28;20109;-76
2023/11/27 10:50:58;;;;;;;7.10;3.67;;;4.10;99.90;;;;;;5015403;28;20049;-76
2023/11/27 10:53:24;;;;;;;7.45;4.28;;;4.10;99.90;;;;;;5009497;28;20021;-76
2023/11/27 10:55:51;;;;;;;8.20;3.97;;;4.10;99.90;;;;;;5017389;28;20029;-76
2023/11/27 10:58:18;;;;;;;9.65;4.63;;;4.10;99.90;;;;;;5010264;28;20037;-76
2023/11/27 11:00:56;;;;;;;7.13;4.28;;;4.00;99.90;;;;;;5014007;28;20053;-76
2023/11/27 11:03:24;;;;;;;6.43;3.67;;;4.10;99.90;;;;;;5005197;28;20037;-76
2023/11/27 11:05:56;;;;;;;7.03;3.97;;;4.00;99.90;;;;;;5013794;28;20466;-76
2023/11/27 11:08:32;;;;;;;7.38;4.05;;;4.00;99.90;;;;;;5011274;28;20028;-76
2023/11/27 11:10:59;;;;;;;6.20;3.17;;;4.00;99.90;;;;;;5008328;28;20052;-76
2023/11/27 11:13:25;;;;;;;7.85;3.92;;;4.00;99.90;;;;;;5011015;28;20108;-76
2023/11/27 11:16:07;;;;;;;6.63;3.42;;;4.00;99.90;;;;;;5004515;28;20148;-76
2023/11/27 11:18:58;;;;;;;6.57;3.72;;;4.00;99.90;;;;;;5004076;28;20038;-75
2023/11/27 11:21:32;;;;;;;7.78;4.38;;;4.00;99.90;;;;;;5006785;28;20017;-77
2023/11/27 11:24:11;;;;;;;6.75;4.10;;;3.90;99.90;;;;;;5011502;28;20033;-76
2023/11/27 11:26:58;;;;;;;6.35;3.25;;;4.00;99.90;;;;;;4989478;28;20065;-77
2023/11/27 11:29:34;;;;;;;5.93;3.25;;;4.00;99.90;;;;;;5014425;28;20069;-78
2023/11/27 11:32:04;;;;;;;5.78;3.45;;;4.10;99.90;;;;;;5011047;28;20050;-77
2023/11/27 11:34:36;;;;;;;4.47;2.60;;;4.00;99.90;;;;;;5012931;28;20030;-77
2023/11/27 11:37:03;;;;;;;6.00;3.42;;;4.00;99.90;;;;;;5012901;28;20044;-78
2023/11/27 11:39:29;;;;;;;7.30;3.40;;;3.90;99.90;;;;;;5014839;28;20022;-76
2023/11/27 11:42:04;;;;;;;8.35;3.67;;;3.90;99.90;;;;;;5015882;28;20044;-77
2023/11/27 11:44:35;;;;;;;5.72;3.53;;;3.90;99.90;;;;;;5012709;28;20038;-77
2023/11/27 11:47:25;;;;;;;7.45;3.80;;;3.80;99.90;;;;;;5009709;28;20417;-77
2023/11/27 11:50:11;;;;;;;6.00;3.13;;;3.90;99.90;;;;;;5012045;28;20429;-77
2023/11/27 11:52:36;;;;;;;6.70;3.28;;;3.80;99.90;;;;;;5019578;28;20114;-77
2023/11/27 11:55:02;;;;;;;4.55;2.78;;;3.90;99.90;;;;;;5014104;28;20084;-77
2023/11/27 11:57:27;;;;;;;5.15;2.85;;;3.90;99.90;;;;;;5014913;28;20034;-77
2023/11/27 11:59:53;;;;;;;6.35;3.40;;;3.90;99.90;;;;;;5014823;28;20030;-78
2023/11/27 12:02:21;;;;;;;5.07;2.97;;;3.80;99.90;;;;;;5005178;28;20030;-77
2023/11/27 12:04:53;;;;;;;7.00;3.42;;;3.90;99.90;;;;;;5010340;28;20032;-77
2023/11/27 12:07:21;;;;;;;5.70;2.78;;;3.90;99.90;;;;;;5018821;28;20032;-76
2023/11/27 12:09:49;;;;;;;3.83;2.28;;;3.80;99.90;;;;;;5009394;28;20030;-76
2023/11/27 12:12:15;;;;;;;6.10;2.55;;;3.70;99.90;;;;;;5004913;28;20483;-76
2023/11/27 12:14:41;;;;;;;4.88;2.92;;;3.80;99.90;;;;;;5012146;28;20060;-76
2023/11/27 12:17:15;;;;;;;5.78;3.25;;;3.70;99.90;;;;;;5009024;28;20069;-77
2023/11/27 12:19:45;;;;;;;4.05;2.30;;;3.70;99.90;;;;;;5007334;28;20036;-77
2023/11/27 12:22:11;;;;;;;3.17;2.10;;;3.60;99.90;;;;;;5004981;28;20034;-76
2023/11/27 12:24:43;;;;;;;3.53;1.88;;;3.70;99.90;;;;;;4991988;28;20057;-76
2023/11/27 12:27:09;;;;;;;4.13;2.00;;;3.60;99.90;;;;;;5010058;28;20652;-76
2023/11/27 12:29:34;;;;;;;4.38;1.73;;;3.60;99.90;;;;;;5010301;28;20029;-75
2023/11/27 12:32:00;;;;;;;3.38;1.95;;;3.50;99.90;;;;;;4998448;28;20049;-76
2023/11/27 12:34:25;;;;;;;2.63;1.38;;;3.60;99.90;;;;;;5007352;28;20061;-76
2023/11/27 12:36:52;;;;;;;2.53;1.40;;;3.50;99.90;;;;;;5011338;28;20437;-74
2023/11/27 12:39:25;;;;;;;3.42;2.03;;;3.50;99.90;;;;;;5008737;28;20406;-75
2023/11/27 12:42:01;;;;;;;1.90;1.30;;;3.50;99.90;;;;;;5003680;28;20039;-75
2023/11/27 12:44:29;;;;;;;2.40;1.20;;;3.40;99.90;;;;;;5007136;28;20022;-75
2023/11/27 12:46:55;;;;;;;2.13;1.25;;;3.40;99.90;;;;;;5002747;28;20045;-78
2023/11/27 12:49:25;;;;;;;2.05;1.05;;;3.40;99.90;;;;;;5002287;28;20539;-76
2023/11/27 12:51:51;;;;;;;2.08;1.20;;;3.40;99.90;;;;;;5006511;28;20049;-75
2023/11/27 12:54:21;;;;;;;2.35;1.20;;;3.30;99.90;;;;;;5005881;28;20129;-75